sensor_id;sensor_type;location;lat;lon;timestamp;P1;durP1;ratioP1;P2;durP2;ratioP2
59127;SDS011;44912;52.754;5.994;2023-05-07T00:00:36;19.48;;;16.23;;
59127;SDS011;44912;52.754;5.994;2023-05-07T00:03:02;18.10;;;15.88;;
59127;SDS011;44912;52.754;5.994;2023-05-07T00:05:28;17.30;;;15.43;;
59127;SDS011;44912;52.754;5.994;2023-05-07T00:07:53;18.42;;;16.17;;
59127;SDS011;44912;52.754;5.994;2023-05-07T00:10:19;20.00;;;16.60;;
59127;SDS011;44912;52.754;5.994;2023-05-07T00:12:44;19.27;;;15.77;;
59127;SDS011;44912;52.754;5.994;2023-05-07T00:15:10;18.50;;;16.02;;
59127;SDS011;44912;52.754;5.994;2023-05-07T00:17:36;18.70;;;16.20;;
59127;SDS011;44912;52.754;5.994;2023-05-07T00:20:02;18.13;;;16.13;;
59127;SDS011;44912;52.754;5.994;2023-05-07T00:22:29;18.55;;;15.95;;
59127;SDS011;44912;52.754;5.994;2023-05-07T00:24:55;18.25;;;15.82;;
59127;SDS011;44912;52.754;5.994;2023-05-07T00:27:21;20.05;;;16.58;;
59127;SDS011;44912;52.754;5.994;2023-05-07T00:29:47;17.75;;;15.07;;
59127;SDS011;44912;52.754;5.994;2023-05-07T00:32:13;18.40;;;15.00;;
59127;SDS011;44912;52.754;5.994;2023-05-07T00:34:39;19.90;;;15.82;;
59127;SDS011;44912;52.754;5.994;2023-05-07T00:37:04;18.38;;;15.55;;
59127;SDS011;44912;52.754;5.994;2023-05-07T00:39:32;18.52;;;14.98;;
59127;SDS011;44912;52.754;5.994;2023-05-07T00:41:58;17.73;;;15.50;;
59127;SDS011;44912;52.754;5.994;2023-05-07T00:44:24;16.88;;;14.88;;
59127;SDS011;44912;52.754;5.994;2023-05-07T00:46:50;18.92;;;15.85;;
59127;SDS011;44912;52.754;5.994;2023-05-07T00:49:16;19.67;;;15.40;;
59127;SDS011;44912;52.754;5.994;2023-05-07T00:51:42;19.50;;;15.30;;
59127;SDS011;44912;52.754;5.994;2023-05-07T00:54:08;17.48;;;14.90;;
59127;SDS011;44912;52.754;5.994;2023-05-07T00:56:34;19.17;;;15.50;;
59127;SDS011;44912;52.754;5.994;2023-05-07T00:59:01;16.30;;;14.45;;
59127;SDS011;44912;52.754;5.994;2023-05-07T01:01:27;18.77;;;15.93;;
59127;SDS011;44912;52.754;5.994;2023-05-07T01:03:53;18.85;;;15.60;;
59127;SDS011;44912;52.754;5.994;2023-05-07T01:06:19;17.33;;;15.57;;
59127;SDS011;44912;52.754;5.994;2023-05-07T01:08:47;19.35;;;17.27;;
59127;SDS011;44912;52.754;5.994;2023-05-07T01:11:15;21.80;;;17.98;;
59127;SDS011;44912;52.754;5.994;2023-05-07T01:13:42;21.25;;;18.08;;
59127;SDS011;44912;52.754;5.994;2023-05-07T01:16:08;22.25;;;17.80;;
59127;SDS011;44912;52.754;5.994;2023-05-07T01:18:34;22.13;;;18.58;;
59127;SDS011;44912;52.754;5.994;2023-05-07T01:21:00;23.90;;;19.88;;
59127;SDS011;44912;52.754;5.994;2023-05-07T01:23:28;24.75;;;20.80;;
59127;SDS011;44912;52.754;5.994;2023-05-07T01:25:55;24.38;;;21.55;;
59127;SDS011;44912;52.754;5.994;2023-05-07T01:28:21;25.50;;;21.52;;
59127;SDS011;44912;52.754;5.994;2023-05-07T01:30:49;24.90;;;22.25;;
59127;SDS011;44912;52.754;5.994;2023-05-07T01:33:18;26.75;;;22.85;;
59127;SDS011;44912;52.754;5.994;2023-05-07T01:35:47;28.75;;;23.83;;
59127;SDS011;44912;52.754;5.994;2023-05-07T01:38:15;26.17;;;23.27;;
59127;SDS011;44912;52.754;5.994;2023-05-07T01:40:41;28.55;;;24.40;;
59127;SDS011;44912;52.754;5.994;2023-05-07T01:43:07;26.83;;;23.95;;
59127;SDS011;44912;52.754;5.994;2023-05-07T01:45:34;29.15;;;24.23;;
59127;SDS011;44912;52.754;5.994;2023-05-07T01:48:01;25.17;;;22.52;;
59127;SDS011;44912;52.754;5.994;2023-05-07T01:50:27;27.45;;;24.20;;
59127;SDS011;44912;52.754;5.994;2023-05-07T01:52:54;27.67;;;23.48;;
59127;SDS011;44912;52.754;5.994;2023-05-07T01:55:20;25.85;;;23.05;;
59127;SDS011;44912;52.754;5.994;2023-05-07T01:57:46;28.52;;;23.92;;
59127;SDS011;44912;52.754;5.994;2023-05-07T02:00:12;30.98;;;24.40;;
59127;SDS011;44912;52.754;5.994;2023-05-07T02:02:37;27.38;;;24.02;;
59127;SDS011;44912;52.754;5.994;2023-05-07T02:05:03;26.90;;;24.00;;
59127;SDS011;44912;52.754;5.994;2023-05-07T02:07:29;29.92;;;24.08;;
59127;SDS011;44912;52.754;5.994;2023-05-07T02:09:55;26.38;;;22.98;;
59127;SDS011;44912;52.754;5.994;2023-05-07T02:12:21;26.65;;;22.17;;
59127;SDS011;44912;52.754;5.994;2023-05-07T02:14:47;25.00;;;21.60;;
59127;SDS011;44912;52.754;5.994;2023-05-07T02:17:13;25.95;;;22.30;;
59127;SDS011;44912;52.754;5.994;2023-05-07T02:19:38;26.83;;;22.17;;
59127;SDS011;44912;52.754;5.994;2023-05-07T02:22:04;26.65;;;22.27;;
59127;SDS011;44912;52.754;5.994;2023-05-07T02:24:29;25.73;;;21.48;;
59127;SDS011;44912;52.754;5.994;2023-05-07T02:26:55;23.67;;;20.48;;
59127;SDS011;44912;52.754;5.994;2023-05-07T02:29:20;25.75;;;20.48;;
59127;SDS011;44912;52.754;5.994;2023-05-07T02:31:46;23.60;;;20.40;;
59127;SDS011;44912;52.754;5.994;2023-05-07T02:34:15;25.67;;;20.58;;
59127;SDS011;44912;52.754;5.994;2023-05-07T02:36:41;26.30;;;19.75;;
59127;SDS011;44912;52.754;5.994;2023-05-07T02:39:07;26.40;;;18.83;;
59127;SDS011;44912;52.754;5.994;2023-05-07T02:41:32;21.63;;;18.85;;
59127;SDS011;44912;52.754;5.994;2023-05-07T02:43:58;23.80;;;19.33;;
59127;SDS011;44912;52.754;5.994;2023-05-07T02:46:23;24.65;;;19.02;;
59127;SDS011;44912;52.754;5.994;2023-05-07T02:48:49;21.08;;;18.05;;
59127;SDS011;44912;52.754;5.994;2023-05-07T02:51:16;23.48;;;18.65;;
59127;SDS011;44912;52.754;5.994;2023-05-07T02:53:44;23.88;;;18.88;;
59127;SDS011;44912;52.754;5.994;2023-05-07T02:56:10;22.73;;;18.00;;
59127;SDS011;44912;52.754;5.994;2023-05-07T02:58:36;22.58;;;17.48;;
59127;SDS011;44912;52.754;5.994;2023-05-07T03:01:04;21.50;;;17.27;;
59127;SDS011;44912;52.754;5.994;2023-05-07T03:03:30;22.73;;;17.35;;
59127;SDS011;44912;52.754;5.994;2023-05-07T03:05:55;24.80;;;19.30;;
59127;SDS011;44912;52.754;5.994;2023-05-07T03:08:21;22.85;;;18.48;;
59127;SDS011;44912;52.754;5.994;2023-05-07T03:10:47;23.60;;;18.80;;
59127;SDS011;44912;52.754;5.994;2023-05-07T03:13:12;22.60;;;18.77;;
59127;SDS011;44912;52.754;5.994;2023-05-07T03:15:38;23.10;;;19.20;;
59127;SDS011;44912;52.754;5.994;2023-05-07T03:18:03;22.50;;;17.90;;
59127;SDS011;44912;52.754;5.994;2023-05-07T03:20:29;22.23;;;18.92;;
59127;SDS011;44912;52.754;5.994;2023-05-07T03:22:55;22.35;;;19.90;;
59127;SDS011;44912;52.754;5.994;2023-05-07T03:25:20;23.02;;;19.83;;
59127;SDS011;44912;52.754;5.994;2023-05-07T03:27:46;26.02;;;20.15;;
59127;SDS011;44912;52.754;5.994;2023-05-07T03:30:11;25.95;;;20.98;;
59127;SDS011;44912;52.754;5.994;2023-05-07T03:32:37;26.20;;;20.95;;
59127;SDS011;44912;52.754;5.994;2023-05-07T03:35:03;27.55;;;20.27;;
59127;SDS011;44912;52.754;5.994;2023-05-07T03:37:29;25.75;;;21.33;;
59127;SDS011;44912;52.754;5.994;2023-05-07T03:39:55;24.83;;;20.33;;
59127;SDS011;44912;52.754;5.994;2023-05-07T03:42:20;25.63;;;20.90;;
59127;SDS011;44912;52.754;5.994;2023-05-07T03:44:46;25.13;;;21.17;;
59127;SDS011;44912;52.754;5.994;2023-05-07T03:47:12;23.15;;;20.25;;
59127;SDS011;44912;52.754;5.994;2023-05-07T03:49:38;26.83;;;20.50;;
59127;SDS011;44912;52.754;5.994;2023-05-07T03:52:04;23.67;;;21.13;;
59127;SDS011;44912;52.754;5.994;2023-05-07T03:54:30;25.50;;;21.52;;
59127;SDS011;44912;52.754;5.994;2023-05-07T03:56:56;25.45;;;21.10;;
59127;SDS011;44912;52.754;5.994;2023-05-07T03:59:21;25.85;;;20.45;;
59127;SDS011;44912;52.754;5.994;2023-05-07T04:01:47;24.58;;;21.50;;
59127;SDS011;44912;52.754;5.994;2023-05-07T04:04:14;27.50;;;20.77;;
59127;SDS011;44912;52.754;5.994;2023-05-07T04:06:40;25.42;;;21.38;;
59127;SDS011;44912;52.754;5.994;2023-05-07T04:09:06;26.15;;;22.50;;
59127;SDS011;44912;52.754;5.994;2023-05-07T04:11:31;27.95;;;22.50;;
59127;SDS011;44912;52.754;5.994;2023-05-07T04:13:57;26.00;;;21.92;;
59127;SDS011;44912;52.754;5.994;2023-05-07T04:16:23;27.30;;;21.13;;
59127;SDS011;44912;52.754;5.994;2023-05-07T04:18:48;28.10;;;21.85;;
59127;SDS011;44912;52.754;5.994;2023-05-07T04:21:17;26.48;;;22.25;;
59127;SDS011;44912;52.754;5.994;2023-05-07T04:23:45;27.10;;;22.35;;
59127;SDS011;44912;52.754;5.994;2023-05-07T04:26:11;27.17;;;22.65;;
59127;SDS011;44912;52.754;5.994;2023-05-07T04:28:37;30.48;;;23.80;;
59127;SDS011;44912;52.754;5.994;2023-05-07T04:31:04;28.58;;;23.20;;
59127;SDS011;44912;52.754;5.994;2023-05-07T04:33:30;29.05;;;22.90;;
59127;SDS011;44912;52.754;5.994;2023-05-07T04:35:56;26.48;;;22.10;;
59127;SDS011;44912;52.754;5.994;2023-05-07T04:38:21;27.95;;;22.65;;
59127;SDS011;44912;52.754;5.994;2023-05-07T04:40:48;30.35;;;23.05;;
59127;SDS011;44912;52.754;5.994;2023-05-07T04:43:14;31.02;;;22.48;;
59127;SDS011;44912;52.754;5.994;2023-05-07T04:45:39;32.80;;;25.27;;
59127;SDS011;44912;52.754;5.994;2023-05-07T04:48:06;32.28;;;25.45;;
59127;SDS011;44912;52.754;5.994;2023-05-07T04:50:32;29.48;;;24.45;;
59127;SDS011;44912;52.754;5.994;2023-05-07T04:52:58;29.88;;;24.75;;
59127;SDS011;44912;52.754;5.994;2023-05-07T04:55:23;33.38;;;26.33;;
59127;SDS011;44912;52.754;5.994;2023-05-07T04:57:49;31.45;;;26.27;;
59127;SDS011;44912;52.754;5.994;2023-05-07T05:00:15;30.48;;;25.05;;
59127;SDS011;44912;52.754;5.994;2023-05-07T05:02:41;31.38;;;24.92;;
59127;SDS011;44912;52.754;5.994;2023-05-07T05:05:07;31.05;;;26.35;;
59127;SDS011;44912;52.754;5.994;2023-05-07T05:07:33;34.97;;;26.17;;
59127;SDS011;44912;52.754;5.994;2023-05-07T05:09:59;33.05;;;26.55;;
59127;SDS011;44912;52.754;5.994;2023-05-07T05:12:24;34.53;;;27.42;;
59127;SDS011;44912;52.754;5.994;2023-05-07T05:14:50;33.53;;;26.50;;
59127;SDS011;44912;52.754;5.994;2023-05-07T05:17:15;35.20;;;26.95;;
59127;SDS011;44912;52.754;5.994;2023-05-07T05:19:41;32.65;;;26.63;;
59127;SDS011;44912;52.754;5.994;2023-05-07T05:22:07;34.83;;;27.48;;
59127;SDS011;44912;52.754;5.994;2023-05-07T05:24:32;34.42;;;27.15;;
59127;SDS011;44912;52.754;5.994;2023-05-07T05:26:58;34.65;;;28.20;;
59127;SDS011;44912;52.754;5.994;2023-05-07T05:29:26;34.65;;;28.50;;
59127;SDS011;44912;52.754;5.994;2023-05-07T05:31:51;35.38;;;28.05;;
59127;SDS011;44912;52.754;5.994;2023-05-07T05:34:17;35.40;;;27.98;;
59127;SDS011;44912;52.754;5.994;2023-05-07T05:36:44;38.25;;;28.88;;
59127;SDS011;44912;52.754;5.994;2023-05-07T05:39:10;36.35;;;27.77;;
59127;SDS011;44912;52.754;5.994;2023-05-07T05:41:35;39.28;;;29.77;;
59127;SDS011;44912;52.754;5.994;2023-05-07T05:44:01;37.42;;;29.13;;
59127;SDS011;44912;52.754;5.994;2023-05-07T05:46:26;38.25;;;30.13;;
59127;SDS011;44912;52.754;5.994;2023-05-07T05:48:52;37.30;;;29.25;;
59127;SDS011;44912;52.754;5.994;2023-05-07T05:51:17;38.88;;;29.73;;
59127;SDS011;44912;52.754;5.994;2023-05-07T05:53:43;41.38;;;29.88;;
59127;SDS011;44912;52.754;5.994;2023-05-07T05:56:09;37.72;;;28.98;;
59127;SDS011;44912;52.754;5.994;2023-05-07T05:58:34;37.60;;;29.70;;
59127;SDS011;44912;52.754;5.994;2023-05-07T06:01:00;36.33;;;28.55;;
59127;SDS011;44912;52.754;5.994;2023-05-07T06:03:27;37.78;;;29.17;;
59127;SDS011;44912;52.754;5.994;2023-05-07T06:05:53;36.35;;;29.85;;
59127;SDS011;44912;52.754;5.994;2023-05-07T06:08:18;38.10;;;29.50;;
59127;SDS011;44912;52.754;5.994;2023-05-07T06:10:44;36.40;;;29.23;;
59127;SDS011;44912;52.754;5.994;2023-05-07T06:13:10;37.53;;;29.52;;
59127;SDS011;44912;52.754;5.994;2023-05-07T06:15:36;35.58;;;29.45;;
59127;SDS011;44912;52.754;5.994;2023-05-07T06:18:01;37.42;;;29.45;;
59127;SDS011;44912;52.754;5.994;2023-05-07T06:20:27;36.55;;;29.67;;
59127;SDS011;44912;52.754;5.994;2023-05-07T06:22:52;36.50;;;29.58;;
59127;SDS011;44912;52.754;5.994;2023-05-07T06:25:18;37.03;;;28.88;;
59127;SDS011;44912;52.754;5.994;2023-05-07T06:27:44;39.45;;;29.98;;
59127;SDS011;44912;52.754;5.994;2023-05-07T06:30:10;36.85;;;28.85;;
59127;SDS011;44912;52.754;5.994;2023-05-07T06:32:36;35.63;;;28.77;;
59127;SDS011;44912;52.754;5.994;2023-05-07T06:35:01;37.28;;;29.92;;
59127;SDS011;44912;52.754;5.994;2023-05-07T06:37:27;36.65;;;29.92;;
59127;SDS011;44912;52.754;5.994;2023-05-07T06:39:52;37.58;;;28.77;;
59127;SDS011;44912;52.754;5.994;2023-05-07T06:42:18;36.75;;;29.38;;
59127;SDS011;44912;52.754;5.994;2023-05-07T06:44:43;35.25;;;28.27;;
59127;SDS011;44912;52.754;5.994;2023-05-07T06:47:09;36.05;;;28.27;;
59127;SDS011;44912;52.754;5.994;2023-05-07T06:49:34;36.03;;;27.85;;
59127;SDS011;44912;52.754;5.994;2023-05-07T06:52:00;34.38;;;28.73;;
59127;SDS011;44912;52.754;5.994;2023-05-07T06:54:25;36.45;;;28.45;;
59127;SDS011;44912;52.754;5.994;2023-05-07T06:56:51;34.50;;;28.27;;
59127;SDS011;44912;52.754;5.994;2023-05-07T06:59:16;38.70;;;29.15;;
59127;SDS011;44912;52.754;5.994;2023-05-07T07:01:42;35.15;;;28.23;;
59127;SDS011;44912;52.754;5.994;2023-05-07T07:04:08;33.53;;;27.15;;
59127;SDS011;44912;52.754;5.994;2023-05-07T07:06:33;35.30;;;27.50;;
59127;SDS011;44912;52.754;5.994;2023-05-07T07:08:59;33.70;;;27.65;;
59127;SDS011;44912;52.754;5.994;2023-05-07T07:11:25;32.53;;;27.40;;
59127;SDS011;44912;52.754;5.994;2023-05-07T07:13:51;32.30;;;27.55;;
59127;SDS011;44912;52.754;5.994;2023-05-07T07:16:16;31.27;;;25.92;;
59127;SDS011;44912;52.754;5.994;2023-05-07T07:18:42;32.08;;;26.98;;
59127;SDS011;44912;52.754;5.994;2023-05-07T07:21:07;31.42;;;25.90;;
59127;SDS011;44912;52.754;5.994;2023-05-07T07:23:33;31.33;;;25.98;;
59127;SDS011;44912;52.754;5.994;2023-05-07T07:25:58;31.70;;;26.15;;
59127;SDS011;44912;52.754;5.994;2023-05-07T07:28:24;33.15;;;27.85;;
59127;SDS011;44912;52.754;5.994;2023-05-07T07:30:49;31.75;;;24.98;;
59127;SDS011;44912;52.754;5.994;2023-05-07T07:33:15;33.53;;;26.27;;
59127;SDS011;44912;52.754;5.994;2023-05-07T07:35:41;30.52;;;26.50;;
59127;SDS011;44912;52.754;5.994;2023-05-07T07:38:07;32.30;;;26.02;;
59127;SDS011;44912;52.754;5.994;2023-05-07T07:40:34;32.78;;;26.48;;
59127;SDS011;44912;52.754;5.994;2023-05-07T07:43:00;31.08;;;24.27;;
59127;SDS011;44912;52.754;5.994;2023-05-07T07:45:26;27.88;;;24.52;;
59127;SDS011;44912;52.754;5.994;2023-05-07T07:47:52;29.58;;;24.52;;
59127;SDS011;44912;52.754;5.994;2023-05-07T07:50:17;29.63;;;24.65;;
59127;SDS011;44912;52.754;5.994;2023-05-07T07:52:43;29.48;;;24.98;;
59127;SDS011;44912;52.754;5.994;2023-05-07T07:55:09;31.17;;;25.42;;
59127;SDS011;44912;52.754;5.994;2023-05-07T07:57:35;29.85;;;25.75;;
59127;SDS011;44912;52.754;5.994;2023-05-07T08:00:00;29.83;;;25.30;;
59127;SDS011;44912;52.754;5.994;2023-05-07T08:02:26;30.10;;;25.65;;
59127;SDS011;44912;52.754;5.994;2023-05-07T08:04:51;29.30;;;24.58;;
59127;SDS011;44912;52.754;5.994;2023-05-07T08:07:17;29.08;;;25.00;;
59127;SDS011;44912;52.754;5.994;2023-05-07T08:09:45;28.35;;;23.73;;
59127;SDS011;44912;52.754;5.994;2023-05-07T08:12:11;30.80;;;24.85;;
59127;SDS011;44912;52.754;5.994;2023-05-07T08:14:37;29.83;;;25.25;;
59127;SDS011;44912;52.754;5.994;2023-05-07T08:17:02;34.35;;;25.80;;
59127;SDS011;44912;52.754;5.994;2023-05-07T08:19:28;29.70;;;24.73;;
59127;SDS011;44912;52.754;5.994;2023-05-07T08:21:53;28.75;;;24.92;;
59127;SDS011;44912;52.754;5.994;2023-05-07T08:24:20;29.30;;;24.20;;
59127;SDS011;44912;52.754;5.994;2023-05-07T08:26:45;28.52;;;24.23;;
59127;SDS011;44912;52.754;5.994;2023-05-07T08:29:11;29.95;;;25.27;;
59127;SDS011;44912;52.754;5.994;2023-05-07T08:31:37;27.98;;;24.02;;
59127;SDS011;44912;52.754;5.994;2023-05-07T08:34:04;28.45;;;23.75;;
59127;SDS011;44912;52.754;5.994;2023-05-07T08:36:31;29.95;;;25.92;;
59127;SDS011;44912;52.754;5.994;2023-05-07T08:38:57;29.17;;;24.20;;
59127;SDS011;44912;52.754;5.994;2023-05-07T08:41:22;28.73;;;24.73;;
59127;SDS011;44912;52.754;5.994;2023-05-07T08:43:48;28.13;;;25.10;;
59127;SDS011;44912;52.754;5.994;2023-05-07T08:46:17;27.48;;;24.13;;
59127;SDS011;44912;52.754;5.994;2023-05-07T08:48:44;29.63;;;24.48;;
59127;SDS011;44912;52.754;5.994;2023-05-07T08:51:13;31.10;;;24.70;;
59127;SDS011;44912;52.754;5.994;2023-05-07T08:53:41;29.92;;;25.00;;
59127;SDS011;44912;52.754;5.994;2023-05-07T08:56:08;28.77;;;24.65;;
59127;SDS011;44912;52.754;5.994;2023-05-07T08:58:34;28.05;;;24.58;;
59127;SDS011;44912;52.754;5.994;2023-05-07T09:01:01;29.75;;;25.55;;
59127;SDS011;44912;52.754;5.994;2023-05-07T09:03:32;28.42;;;23.95;;
59127;SDS011;44912;52.754;5.994;2023-05-07T09:05:58;28.70;;;24.77;;
59127;SDS011;44912;52.754;5.994;2023-05-07T09:08:26;31.65;;;26.13;;
59127;SDS011;44912;52.754;5.994;2023-05-07T09:10:52;28.73;;;24.33;;
59127;SDS011;44912;52.754;5.994;2023-05-07T09:13:18;29.55;;;24.98;;
59127;SDS011;44912;52.754;5.994;2023-05-07T09:15:44;28.98;;;24.52;;
59127;SDS011;44912;52.754;5.994;2023-05-07T09:18:10;29.27;;;25.05;;
59127;SDS011;44912;52.754;5.994;2023-05-07T09:20:37;27.38;;;24.40;;
59127;SDS011;44912;52.754;5.994;2023-05-07T09:23:02;28.60;;;23.90;;
59127;SDS011;44912;52.754;5.994;2023-05-07T09:25:29;27.15;;;24.20;;
59127;SDS011;44912;52.754;5.994;2023-05-07T09:27:56;26.58;;;23.30;;
59127;SDS011;44912;52.754;5.994;2023-05-07T09:30:21;25.88;;;22.95;;
59127;SDS011;44912;52.754;5.994;2023-05-07T09:32:47;27.95;;;24.40;;
59127;SDS011;44912;52.754;5.994;2023-05-07T09:35:16;29.70;;;24.67;;
59127;SDS011;44912;52.754;5.994;2023-05-07T09:37:42;28.83;;;24.80;;
59127;SDS011;44912;52.754;5.994;2023-05-07T09:40:08;26.95;;;23.02;;
59127;SDS011;44912;52.754;5.994;2023-05-07T09:42:44;27.30;;;23.75;;
59127;SDS011;44912;52.754;5.994;2023-05-07T09:45:12;28.50;;;23.38;;
59127;SDS011;44912;52.754;5.994;2023-05-07T09:47:37;27.17;;;23.88;;
59127;SDS011;44912;52.754;5.994;2023-05-07T09:50:09;28.58;;;23.63;;
59127;SDS011;44912;52.754;5.994;2023-05-07T09:52:37;26.80;;;22.63;;
59127;SDS011;44912;52.754;5.994;2023-05-07T09:55:05;26.50;;;23.55;;
59127;SDS011;44912;52.754;5.994;2023-05-07T09:57:32;26.88;;;23.92;;
59127;SDS011;44912;52.754;5.994;2023-05-07T09:59:58;26.83;;;22.98;;
59127;SDS011;44912;52.754;5.994;2023-05-07T10:02:29;27.15;;;22.63;;
59127;SDS011;44912;52.754;5.994;2023-05-07T10:04:56;26.92;;;23.77;;
59127;SDS011;44912;52.754;5.994;2023-05-07T10:07:23;30.25;;;25.20;;
59127;SDS011;44912;52.754;5.994;2023-05-07T10:09:50;28.75;;;24.42;;
59127;SDS011;44912;52.754;5.994;2023-05-07T10:12:16;30.85;;;23.55;;
59127;SDS011;44912;52.754;5.994;2023-05-07T10:14:43;26.67;;;23.17;;
59127;SDS011;44912;52.754;5.994;2023-05-07T10:17:10;26.52;;;23.17;;
59127;SDS011;44912;52.754;5.994;2023-05-07T10:19:37;26.55;;;22.60;;
59127;SDS011;44912;52.754;5.994;2023-05-07T10:22:04;24.88;;;20.20;;
59127;SDS011;44912;52.754;5.994;2023-05-07T10:24:35;25.15;;;21.23;;
59127;SDS011;44912;52.754;5.994;2023-05-07T10:27:02;23.55;;;19.95;;
59127;SDS011;44912;52.754;5.994;2023-05-07T10:29:39;25.02;;;21.08;;
59127;SDS011;44912;52.754;5.994;2023-05-07T10:32:26;24.02;;;21.42;;
59127;SDS011;44912;52.754;5.994;2023-05-07T10:35:00;25.73;;;21.88;;
59127;SDS011;44912;52.754;5.994;2023-05-07T10:37:28;25.02;;;21.33;;
59127;SDS011;44912;52.754;5.994;2023-05-07T10:39:54;25.17;;;22.15;;
59127;SDS011;44912;52.754;5.994;2023-05-07T10:42:20;25.30;;;22.13;;
59127;SDS011;44912;52.754;5.994;2023-05-07T10:44:46;25.90;;;22.40;;
59127;SDS011;44912;52.754;5.994;2023-05-07T10:47:12;25.90;;;22.10;;
59127;SDS011;44912;52.754;5.994;2023-05-07T10:52:22;24.85;;;21.95;;
59127;SDS011;44912;52.754;5.994;2023-05-07T10:55:18;24.50;;;20.63;;
59127;SDS011;44912;52.754;5.994;2023-05-07T10:57:42;25.30;;;20.98;;
59127;SDS011;44912;52.754;5.994;2023-05-07T11:05:28;24.23;;;20.92;;
59127;SDS011;44912;52.754;5.994;2023-05-07T11:07:59;23.73;;;20.65;;
59127;SDS011;44912;52.754;5.994;2023-05-07T11:16:23;23.75;;;19.55;;
59127;SDS011;44912;52.754;5.994;2023-05-07T11:18:54;22.88;;;18.30;;
59127;SDS011;44912;52.754;5.994;2023-05-07T11:21:33;22.23;;;19.50;;
59127;SDS011;44912;52.754;5.994;2023-05-07T11:24:08;21.95;;;18.92;;
59127;SDS011;44912;52.754;5.994;2023-05-07T11:26:41;24.38;;;19.17;;
59127;SDS011;44912;52.754;5.994;2023-05-07T11:29:12;22.02;;;19.17;;
59127;SDS011;44912;52.754;5.994;2023-05-07T11:31:48;23.10;;;19.65;;
59127;SDS011;44912;52.754;5.994;2023-05-07T11:34:15;20.98;;;17.63;;
59127;SDS011;44912;52.754;5.994;2023-05-07T11:36:45;23.30;;;19.38;;
59127;SDS011;44912;52.754;5.994;2023-05-07T11:39:31;22.40;;;19.52;;
59127;SDS011;44912;52.754;5.994;2023-05-07T11:41:59;23.88;;;18.92;;
59127;SDS011;44912;52.754;5.994;2023-05-07T11:44:25;21.20;;;18.42;;
59127;SDS011;44912;52.754;5.994;2023-05-07T11:47:04;21.27;;;18.75;;
59127;SDS011;44912;52.754;5.994;2023-05-07T11:49:30;22.75;;;19.23;;
59127;SDS011;44912;52.754;5.994;2023-05-07T11:51:56;22.17;;;19.05;;
59127;SDS011;44912;52.754;5.994;2023-05-07T11:54:21;22.92;;;19.85;;
59127;SDS011;44912;52.754;5.994;2023-05-07T11:56:47;21.80;;;19.23;;
59127;SDS011;44912;52.754;5.994;2023-05-07T11:59:16;25.30;;;20.45;;
59127;SDS011;44912;52.754;5.994;2023-05-07T12:01:44;22.20;;;19.48;;
59127;SDS011;44912;52.754;5.994;2023-05-07T12:04:11;22.30;;;18.58;;
59127;SDS011;44912;52.754;5.994;2023-05-07T12:06:36;22.27;;;18.95;;
59127;SDS011;44912;52.754;5.994;2023-05-07T12:09:02;26.00;;;20.35;;
59127;SDS011;44912;52.754;5.994;2023-05-07T12:11:29;21.63;;;19.25;;
59127;SDS011;44912;52.754;5.994;2023-05-07T12:13:54;22.60;;;20.20;;
59127;SDS011;44912;52.754;5.994;2023-05-07T12:16:20;22.52;;;19.45;;
59127;SDS011;44912;52.754;5.994;2023-05-07T12:18:46;22.42;;;19.58;;
59127;SDS011;44912;52.754;5.994;2023-05-07T12:21:13;22.67;;;19.55;;
59127;SDS011;44912;52.754;5.994;2023-05-07T12:23:39;22.75;;;18.95;;
59127;SDS011;44912;52.754;5.994;2023-05-07T12:26:05;22.00;;;18.10;;
59127;SDS011;44912;52.754;5.994;2023-05-07T12:28:31;20.65;;;17.98;;
59127;SDS011;44912;52.754;5.994;2023-05-07T12:31:02;22.90;;;18.67;;
59127;SDS011;44912;52.754;5.994;2023-05-07T12:33:28;22.08;;;19.05;;
59127;SDS011;44912;52.754;5.994;2023-05-07T12:35:54;22.73;;;17.70;;
59127;SDS011;44912;52.754;5.994;2023-05-07T12:38:21;20.75;;;17.40;;
59127;SDS011;44912;52.754;5.994;2023-05-07T12:40:48;21.40;;;18.50;;
59127;SDS011;44912;52.754;5.994;2023-05-07T12:43:21;23.15;;;19.60;;
59127;SDS011;44912;52.754;5.994;2023-05-07T12:45:50;21.52;;;18.50;;
59127;SDS011;44912;52.754;5.994;2023-05-07T12:48:16;20.75;;;17.35;;
59127;SDS011;44912;52.754;5.994;2023-05-07T12:50:43;21.10;;;17.77;;
59127;SDS011;44912;52.754;5.994;2023-05-07T12:53:10;18.88;;;16.80;;
59127;SDS011;44912;52.754;5.994;2023-05-07T12:55:41;19.58;;;17.48;;
59127;SDS011;44912;52.754;5.994;2023-05-07T12:58:13;22.30;;;18.23;;
59127;SDS011;44912;52.754;5.994;2023-05-07T13:00:44;19.98;;;17.77;;
59127;SDS011;44912;52.754;5.994;2023-05-07T13:03:12;21.38;;;19.10;;
59127;SDS011;44912;52.754;5.994;2023-05-07T13:05:50;23.60;;;18.90;;
59127;SDS011;44912;52.754;5.994;2023-05-07T13:08:29;20.70;;;18.30;;
59127;SDS011;44912;52.754;5.994;2023-05-07T13:10:57;21.35;;;17.77;;
59127;SDS011;44912;52.754;5.994;2023-05-07T13:13:24;19.70;;;17.50;;
59127;SDS011;44912;52.754;5.994;2023-05-07T13:15:50;22.05;;;17.92;;
59127;SDS011;44912;52.754;5.994;2023-05-07T13:18:16;20.33;;;17.67;;
59127;SDS011;44912;52.754;5.994;2023-05-07T13:20:42;19.77;;;17.55;;
59127;SDS011;44912;52.754;5.994;2023-05-07T13:23:08;20.65;;;17.90;;
59127;SDS011;44912;52.754;5.994;2023-05-07T13:25:33;21.50;;;17.90;;
59127;SDS011;44912;52.754;5.994;2023-05-07T13:27:59;20.25;;;17.55;;
59127;SDS011;44912;52.754;5.994;2023-05-07T13:30:25;20.73;;;17.13;;
59127;SDS011;44912;52.754;5.994;2023-05-07T13:32:51;18.98;;;16.67;;
59127;SDS011;44912;52.754;5.994;2023-05-07T13:35:18;18.50;;;16.40;;
59127;SDS011;44912;52.754;5.994;2023-05-07T13:37:44;18.88;;;15.93;;
59127;SDS011;44912;52.754;5.994;2023-05-07T13:40:10;19.50;;;16.20;;
59127;SDS011;44912;52.754;5.994;2023-05-07T13:42:35;17.92;;;15.57;;
59127;SDS011;44912;52.754;5.994;2023-05-07T13:45:01;18.00;;;15.23;;
59127;SDS011;44912;52.754;5.994;2023-05-07T13:47:29;19.58;;;15.00;;
59127;SDS011;44912;52.754;5.994;2023-05-07T13:49:54;16.35;;;14.52;;
59127;SDS011;44912;52.754;5.994;2023-05-07T13:52:20;18.85;;;16.63;;
59127;SDS011;44912;52.754;5.994;2023-05-07T13:54:45;19.58;;;16.73;;
59127;SDS011;44912;52.754;5.994;2023-05-07T13:57:11;17.90;;;15.77;;
59127;SDS011;44912;52.754;5.994;2023-05-07T13:59:36;18.75;;;14.88;;
59127;SDS011;44912;52.754;5.994;2023-05-07T14:02:02;18.40;;;15.45;;
59127;SDS011;44912;52.754;5.994;2023-05-07T14:04:27;17.15;;;15.07;;
59127;SDS011;44912;52.754;5.994;2023-05-07T14:06:53;18.52;;;16.17;;
59127;SDS011;44912;52.754;5.994;2023-05-07T14:09:18;20.35;;;14.75;;
59127;SDS011;44912;52.754;5.994;2023-05-07T14:11:44;16.85;;;12.82;;
59127;SDS011;44912;52.754;5.994;2023-05-07T14:14:11;17.45;;;14.23;;
59127;SDS011;44912;52.754;5.994;2023-05-07T14:16:36;16.88;;;14.43;;
59127;SDS011;44912;52.754;5.994;2023-05-07T14:19:02;16.98;;;13.85;;
59127;SDS011;44912;52.754;5.994;2023-05-07T14:21:28;18.38;;;15.23;;
59127;SDS011;44912;52.754;5.994;2023-05-07T14:23:53;17.75;;;15.30;;
59127;SDS011;44912;52.754;5.994;2023-05-07T14:26:21;17.65;;;15.15;;
59127;SDS011;44912;52.754;5.994;2023-05-07T14:28:48;17.83;;;15.93;;
59127;SDS011;44912;52.754;5.994;2023-05-07T14:31:13;18.85;;;16.10;;